Terminal Aerodrome Forecast
Issued by NWS

Home | Current Version | Previous Version | Text Only | Print | Product List | Glossary Off
Versions: 1 2 3 4 5 6 7 8 9 10 11 12 13 14 15 16 17 18 19

000
FTUS43 KMPX 231743
TAFAXN
TAF
KAXN 231743Z 2318/2418 19008KT P6SM SCT060 BKN100
     FM240200 15005KT P6SM BKN050 OVC100
     FM241500 10010KT P6SM OVC050=

USA.gov is the U.S. government's official web portal to all federal, state and local government web resources and services.